Rio Grandeexpress — VRCE5 — position and weather

sailwx.info

Track history (hours):
 
Tides and Currents Weather Stations Pressure Air Temp Water Temp Dewpoint Dewpoint Depression Visibility Wind Speed Wind Dir Waves Ship Positions

Rio Grandeexpress

Last reported at 2018-Apr-23 20:35 UTC. Time now 2018-Apr-24 12:38 UTC.
Position N 05°09' W 000°18'.

Length 260 m; draft 8.5 m.

Type: Ship (hazmat cat B). MMSI: 477415600.

Date/timePositionNaut miles runAvg speedWind from/ knotsBaromVisibWave heightAir tempDewpointWater temp
2018-Apr-23 20:35N 05°09' W 000°18'314.0
2018-Apr-23 20:21N 05°11' W 000°16'513.9
2018-Apr-23 20:00N 05°14' W 000°12'714.1
2018-Apr-23 19:30N 05°19' W 000°07'714.3
2018-Apr-23 19:00N 05°24' W 000°01'714.1
2018-Apr-23 18:29N 05°30' E 000°02'714.3
2018-Apr-23 18:00N 05°37' E 000°03'3 5.6
2018-Apr-23 17:30N 05°37' E 000°01'0 0.1
2018-Apr-23 16:59N 05°37' E 000°00'0 0.0
2018-Apr-23 16:26N 05°37' E 000°00'0 0.0
2018-Apr-23 15:59N 05°37' E 000°00'0 0.0
2018-Apr-23 15:29N 05°37' E 000°00'0 0.0
2018-Apr-23 14:59N 05°37' E 000°00'0 0.0
2018-Apr-23 14:29N 05°37' E 000°00'0 0.0
2018-Apr-23 13:59N 05°37' E 000°00'0 0.0
2018-Apr-23 13:29N 05°37' E 000°00'0 0.0
2018-Apr-23 12:59N 05°37' E 000°00'0 0.0
2018-Apr-23 12:29N 05°37' E 000°00'0 0.0
2018-Apr-23 11:59N 05°37' E 000°00'0 0.0
2018-Apr-23 11:29N 05°37' E 000°00'0 0.0
2018-Apr-23 10:59N 05°37' E 000°00'0 0.0
2018-Apr-23 10:29N 05°37' E 000°00'0 0.0
2018-Apr-23 09:59N 05°37' E 000°00'0 0.0
2018-Apr-23 09:29N 05°37' E 000°00'0 0.0
2018-Apr-23 08:59N 05°37' E 000°00'0 0.0
2018-Apr-23 08:29N 05°37' E 000°00'0 0.0
2018-Apr-23 07:59N 05°37' E 000°00'0 0.0
2018-Apr-23 07:29N 05°37' E 000°00'0 0.0
2018-Apr-23 06:59N 05°37' E 000°00'0 0.0
2018-Apr-23 06:29N 05°37' E 000°01'0 0.0
2018-Apr-23 05:59N 05°37' E 000°00'0 0.0
2018-Apr-23 05:29N 05°37' E 000°00'0 0.0
2018-Apr-23 04:59N 05°37' E 000°00'0 0.0
2018-Apr-23 04:29N 05°37' E 000°00'0 0.0
2018-Apr-23 03:59N 05°37' E 000°01'0 0.0
2018-Apr-23 03:29N 05°37' E 000°00'0 0.0
2018-Apr-23 02:59N 05°37' E 000°00'0 0.0
2018-Apr-23 02:29N 05°37' E 000°00'0 0.0
2018-Apr-23 01:59N 05°37' E 000°00'0 0.0
2018-Apr-23 01:29N 05°37' E 000°01'0 0.0
2018-Apr-23 00:59N 05°37' E 000°00'0 0.0
2018-Apr-23 00:29N 05°37' E 000°01'0 0.0
2018-Apr-22 23:59N 05°37' E 000°00'0 0.0
2018-Apr-22 23:29N 05°37' E 000°00'0 0.0
2018-Apr-22 22:59N 05°37' E 000°00'0 0.0
2018-Apr-22 22:28N 05°37' E 000°00'0 0.0
2018-Apr-22 21:58N 05°37' E 000°00'0 0.0
2018-Apr-22 21:28N 05°37' E 000°00'0 0.0
2018-Apr-22 20:58N 05°37' E 000°00'0 0.0
2018-Apr-22 20:28N 05°37' E 000°00'0 0.0
2018-Apr-22 19:58N 05°37' E 000°00'0 0.0
2018-Apr-22 19:28N 05°37' E 000°00'0 0.0
2018-Apr-22 18:58N 05°37' E 000°00'0 0.0
2018-Apr-22 18:28N 05°37' E 000°00'0 0.0
2018-Apr-22 17:58N 05°37' E 000°00'0 0.0
2018-Apr-22 17:28N 05°37' E 000°00'0 1.1
2018-Apr-22 17:01N 05°38' E 000°01'3 5.5
2018-Apr-22 16:29N 05°35' E 000°03'2 3.8
2018-Apr-22 16:00N 05°34' E 000°01'0 0.1
2018-Apr-22 15:30N 05°34' E 000°02'0 0.0
2018-Apr-22 15:00N 05°34' E 000°02'0 0.0
2018-Apr-22 14:30N 05°34' E 000°02'0 0.0
2018-Apr-22 14:00N 05°34' E 000°01'0 0.0
2018-Apr-22 13:30N 05°34' E 000°01'0 0.0
2018-Apr-22 13:00N 05°34' E 000°01'0 0.0
2018-Apr-22 12:30N 05°34' E 000°01'0 0.0
2018-Apr-22 12:00N 05°34' E 000°01'0 0.0
2018-Apr-22 11:30N 05°34' E 000°01'0 0.0
2018-Apr-22 11:00N 05°34' E 000°01'0 0.0
2018-Apr-22 10:30N 05°34' E 000°01'0 0.0
2018-Apr-22 10:00N 05°34' E 000°01'0 0.0
2018-Apr-22 09:30N 05°34' E 000°01'0 0.0
2018-Apr-22 09:00N 05°34' E 000°01'0 0.0
2018-Apr-22 08:30N 05°34' E 000°01'0 0.0
2018-Apr-22 08:00N 05°34' E 000°01'0 0.0
2018-Apr-22 07:30N 05°34' E 000°01'0 0.0
2018-Apr-22 07:00N 05°34' E 000°01'0 0.0
2018-Apr-22 06:30N 05°34' E 000°01'0 0.1
2018-Apr-22 05:57N 05°34' E 000°01'2 4.9
2018-Apr-22 05:30N 05°34' E 000°04'4 8.2
2018-Apr-22 05:00N 05°30' E 000°06'4 7.4
2018-Apr-22 04:30N 05°30' E 000°10'611.5
2018-Apr-22 04:00N 05°31' E 000°15'611.8
2018-Apr-22 03:30N 05°31' E 000°21'612.8
2018-Apr-22 03:00N 05°31' E 000°28'913.1
2018-Apr-22 02:21N 05°30' E 000°36'412.7
2018-Apr-22 02:00N 05°30' E 000°40'612.5
2018-Apr-22 01:29N 05°30' E 000°47'  
2018-Apr-19 18:06N 06°26' E 003°21'0 0.3
2018-Apr-19 18:00N 06°26' E 003°21'2 3.7
2018-Apr-19 17:27N 06°26' E 003°23'  
2018-Apr-16 11:00N 05°18' W 000°48'84100.7 270 / 91015.010.8 30.028.729.0
2018-Apr-16 10:09N 05°14' E 000°36'416.2
2018-Apr-16 09:55N 05°12' E 000°33'716.1
2018-Apr-16 09:30N 05°10' E 000°27'815.9
2018-Apr-16 09:00N 05°07' E 000°19'815.8
2018-Apr-16 08:30N 05°03' E 000°12'816.0
2018-Apr-16 07:59N 05°00' E 000°04'33315.8
2018-Apr-15 11:00N 04°00' W 005°24'42918.7 200 / 101016.0 5.4 30.028.729.0
2018-Apr-14 12:00N 06°18' W 012°12'19716.6 230 / 161017.0 5.4 25.023.524.0
2018-Apr-14 00:08N 08°11' W 014°55'218.0
2018-Apr-14 00:00N 08°12' W 014°57'  
Track history (hours):
 
Tides and Currents Weather Stations Pressure Air Temp Water Temp Dewpoint Dewpoint Depression Visibility Wind Speed Wind Dir Waves Ship Positions

Rio Grandeexpress

Last reported at 2018-Apr-23 20:35 UTC. Time now 2018-Apr-24 12:38 UTC.
Position N 05°09' W 000°18'.

Length 260 m; draft 8.5 m.

Type: Ship (hazmat cat B). MMSI: 477415600.

Date/timePositionNaut miles runAvg speedWind from/ knotsBaromVisibWave heightAir tempDewpointWater temp
2018-Apr-23 20:35N 05°09' W 000°18'314.0
2018-Apr-23 20:21N 05°11' W 000°16'513.9
2018-Apr-23 20:00N 05°14' W 000°12'714.1
2018-Apr-23 19:30N 05°19' W 000°07'714.3
2018-Apr-23 19:00N 05°24' W 000°01'714.1
2018-Apr-23 18:29N 05°30' E 000°02'714.3
2018-Apr-23 18:00N 05°37' E 000°03'3 5.6
2018-Apr-23 17:30N 05°37' E 000°01'0 0.1
2018-Apr-23 16:59N 05°37' E 000°00'0 0.0
2018-Apr-23 16:26N 05°37' E 000°00'0 0.0
2018-Apr-23 15:59N 05°37' E 000°00'0 0.0
2018-Apr-23 15:29N 05°37' E 000°00'0 0.0
2018-Apr-23 14:59N 05°37' E 000°00'0 0.0
2018-Apr-23 14:29N 05°37' E 000°00'0 0.0
2018-Apr-23 13:59N 05°37' E 000°00'0 0.0
2018-Apr-23 13:29N 05°37' E 000°00'0 0.0
2018-Apr-23 12:59N 05°37' E 000°00'0 0.0
2018-Apr-23 12:29N 05°37' E 000°00'0 0.0
2018-Apr-23 11:59N 05°37' E 000°00'0 0.0
2018-Apr-23 11:29N 05°37' E 000°00'0 0.0
2018-Apr-23 10:59N 05°37' E 000°00'0 0.0
2018-Apr-23 10:29N 05°37' E 000°00'0 0.0
2018-Apr-23 09:59N 05°37' E 000°00'0 0.0
2018-Apr-23 09:29N 05°37' E 000°00'0 0.0
2018-Apr-23 08:59N 05°37' E 000°00'0 0.0
2018-Apr-23 08:29N 05°37' E 000°00'0 0.0
2018-Apr-23 07:59N 05°37' E 000°00'0 0.0
2018-Apr-23 07:29N 05°37' E 000°00'0 0.0
2018-Apr-23 06:59N 05°37' E 000°00'0 0.0
2018-Apr-23 06:29N 05°37' E 000°01'0 0.0
2018-Apr-23 05:59N 05°37' E 000°00'0 0.0
2018-Apr-23 05:29N 05°37' E 000°00'0 0.0
2018-Apr-23 04:59N 05°37' E 000°00'0 0.0
2018-Apr-23 04:29N 05°37' E 000°00'0 0.0
2018-Apr-23 03:59N 05°37' E 000°01'0 0.0
2018-Apr-23 03:29N 05°37' E 000°00'0 0.0
2018-Apr-23 02:59N 05°37' E 000°00'0 0.0
2018-Apr-23 02:29N 05°37' E 000°00'0 0.0
2018-Apr-23 01:59N 05°37' E 000°00'0 0.0
2018-Apr-23 01:29N 05°37' E 000°01'0 0.0
2018-Apr-23 00:59N 05°37' E 000°00'0 0.0
2018-Apr-23 00:29N 05°37' E 000°01'0 0.0
2018-Apr-22 23:59N 05°37' E 000°00'0 0.0
2018-Apr-22 23:29N 05°37' E 000°00'0 0.0
2018-Apr-22 22:59N 05°37' E 000°00'0 0.0
2018-Apr-22 22:28N 05°37' E 000°00'0 0.0
2018-Apr-22 21:58N 05°37' E 000°00'0 0.0
2018-Apr-22 21:28N 05°37' E 000°00'0 0.0
2018-Apr-22 20:58N 05°37' E 000°00'0 0.0
2018-Apr-22 20:28N 05°37' E 000°00'0 0.0
2018-Apr-22 19:58N 05°37' E 000°00'0 0.0
2018-Apr-22 19:28N 05°37' E 000°00'0 0.0
2018-Apr-22 18:58N 05°37' E 000°00'0 0.0
2018-Apr-22 18:28N 05°37' E 000°00'0 0.0
2018-Apr-22 17:58N 05°37' E 000°00'0 0.0
2018-Apr-22 17:28N 05°37' E 000°00'0 1.1
2018-Apr-22 17:01N 05°38' E 000°01'3 5.5
2018-Apr-22 16:29N 05°35' E 000°03'2 3.8
2018-Apr-22 16:00N 05°34' E 000°01'0 0.1
2018-Apr-22 15:30N 05°34' E 000°02'0 0.0
2018-Apr-22 15:00N 05°34' E 000°02'0 0.0
2018-Apr-22 14:30N 05°34' E 000°02'0 0.0
2018-Apr-22 14:00N 05°34' E 000°01'0 0.0
2018-Apr-22 13:30N 05°34' E 000°01'0 0.0
2018-Apr-22 13:00N 05°34' E 000°01'0 0.0
2018-Apr-22 12:30N 05°34' E 000°01'0 0.0
2018-Apr-22 12:00N 05°34' E 000°01'0 0.0
2018-Apr-22 11:30N 05°34' E 000°01'0 0.0
2018-Apr-22 11:00N 05°34' E 000°01'0 0.0
2018-Apr-22 10:30N 05°34' E 000°01'0 0.0
2018-Apr-22 10:00N 05°34' E 000°01'0 0.0
2018-Apr-22 09:30N 05°34' E 000°01'0 0.0
2018-Apr-22 09:00N 05°34' E 000°01'0 0.0
2018-Apr-22 08:30N 05°34' E 000°01'0 0.0
2018-Apr-22 08:00N 05°34' E 000°01'0 0.0
2018-Apr-22 07:30N 05°34' E 000°01'0 0.0
2018-Apr-22 07:00N 05°34' E 000°01'0 0.0
2018-Apr-22 06:30N 05°34' E 000°01'0 0.1
2018-Apr-22 05:57N 05°34' E 000°01'2 4.9
2018-Apr-22 05:30N 05°34' E 000°04'4 8.2
2018-Apr-22 05:00N 05°30' E 000°06'4 7.4
2018-Apr-22 04:30N 05°30' E 000°10'611.5
2018-Apr-22 04:00N 05°31' E 000°15'611.8
2018-Apr-22 03:30N 05°31' E 000°21'612.8
2018-Apr-22 03:00N 05°31' E 000°28'913.1
2018-Apr-22 02:21N 05°30' E 000°36'412.7
2018-Apr-22 02:00N 05°30' E 000°40'612.5
2018-Apr-22 01:29N 05°30' E 000°47'  
2018-Apr-19 18:06N 06°26' E 003°21'0 0.3
2018-Apr-19 18:00N 06°26' E 003°21'2 3.7
2018-Apr-19 17:27N 06°26' E 003°23'  
2018-Apr-16 11:00N 05°18' W 000°48'84100.7 270 / 91015.010.8 30.028.729.0
2018-Apr-16 10:09N 05°14' E 000°36'416.2
2018-Apr-16 09:55N 05°12' E 000°33'716.1
2018-Apr-16 09:30N 05°10' E 000°27'815.9
2018-Apr-16 09:00N 05°07' E 000°19'815.8
2018-Apr-16 08:30N 05°03' E 000°12'816.0
2018-Apr-16 07:59N 05°00' E 000°04'33315.8
2018-Apr-15 11:00N 04°00' W 005°24'42918.7 200 / 101016.0 5.4 30.028.729.0
2018-Apr-14 12:00N 06°18' W 012°12'19716.6 230 / 161017.0 5.4 25.023.524.0
2018-Apr-14 00:08N 08°11' W 014°55'218.0
2018-Apr-14 00:00N 08°12' W 014°57'  

Dump ship's entire track history